^^
Station Historical Data
 
Daily Summary for April 28, 2017 Units:  English    Metric   Both
« Previous Day
Next Day »
Daily Weekly Monthly Yearly Custom
  Current: High: Low: Average:
Temperature: 60.3 °F 60.3 °F 57.2 °F 57.9 °F
Dew Point: 59.4 °F 59.5 °F 56.5 °F 57.2 °F
Humidity: 97% 98% 97% 98%
Wind Speed: 1.0mph 1.0mph 0.0mph 0.2mph
Wind Gust: 5.0mph 5.0mph - -
WindWSW - - SSW
Pressure: 29.99 in 29.99 in 29.88 in -
Precipitation: 0.01 in      
Historical Graphs
 
 
Tabular Data for April 28, 2017
Time Temperature Dew Point Pressure Wind Wind Speed Wind Gust Humidity Rainfall Rate (Hourly) Conditions
00:00 57.9 °F 57.1 °F 29.90 in Calm   2.0 mph 97% 0.00 in +DZ
00:15 57.9 °F 57.1 °F 29.90 in Calm   3.0 mph 97% 0.00 in +DZ
00:30 57.8 °F 57.0 °F 29.90 in Calm   2.0 mph 97% 0.00 in +DZ
00:45 57.6 °F 56.8 °F 29.90 in Calm   3.0 mph 97% 0.00 in +DZ
01:00 57.4 °F 56.6 °F 29.88 in Calm   2.0 mph 97% 0.00 in +DZ
02:15 57.3 °F 56.5 °F 29.88 in Calm   1.0 mph 97% 0.00 in +DZ
02:30 57.3 °F 56.5 °F 29.88 in Calm   2.0 mph 97% 0.00 in +DZ
02:45 57.4 °F 56.8 °F 29.89 in Calm   3.0 mph 98% 0.00 in +DZ
03:00 57.4 °F 56.8 °F 29.88 in ENE 1.0 mph 2.0 mph 98% 0.00 in +DZ
03:15 57.3 °F 56.7 °F 29.88 in Calm   3.0 mph 98% 0.00 in +DZ
03:30 57.3 °F 56.8 °F 29.88 in Calm   1.0 mph 98% 0.00 in +DZ
03:45 57.3 °F 56.7 °F 29.89 in Calm   2.0 mph 98% 0.00 in +DZ
04:00 57.3 °F 56.7 °F 29.88 in Calm   1.0 mph 98% 0.01 in +DZ
04:15 57.2 °F 56.7 °F 29.89 in Calm   2.0 mph 98% 0.00 in +DZ
04:30 57.4 °F 56.8 °F 29.90 in Calm   2.0 mph 98% 0.00 in +DZ
04:45 57.2 °F 56.7 °F 29.90 in Calm   1.0 mph 98% 0.00 in +DZ
05:00 57.2 °F 56.6 °F 29.91 in Calm   1.0 mph 98% 0.00 in +DZ
05:15 57.2 °F 56.7 °F 29.92 in Calm   1.0 mph 98% 0.00 in CLR
05:30 57.2 °F 56.6 °F 29.92 in Calm   1.0 mph 98% 0.00 in CLR
05:45 57.2 °F 56.6 °F 29.92 in Calm     98% 0.00 in CLR
06:00 57.2 °F 56.6 °F 29.93 in Calm     98% 0.00 in CLR
06:30 57.4 °F 56.8 °F 29.94 in Calm   3.0 mph 98% 0.00 in CLR
06:45 57.5 °F 56.9 °F 29.94 in Calm     98% 0.00 in CLR
07:00 57.6 °F 57.0 °F 29.95 in Calm     98% 0.00 in CLR
07:15 57.8 °F 57.2 °F 29.95 in Calm     98% 0.00 in CLR
07:30 58.3 °F 57.7 °F 29.95 in Calm   2.0 mph 98% 0.00 in CLR
07:45 58.7 °F 58.1 °F 29.96 in Calm   1.0 mph 98% 0.00 in CLR
08:00 58.5 °F 58.0 °F 29.97 in Calm   1.0 mph 98% 0.00 in CLR
08:15 59.1 °F 58.5 °F 29.97 in Calm   1.0 mph 98% 0.00 in BKN
08:45 59.5 °F 58.9 °F 29.98 in SW 1.0 mph 5.0 mph 98% 0.00 in BKN
09:00 59.6 °F 59.1 °F 29.98 in WSW 1.0 mph 4.0 mph 98% 0.00 in BKN
09:15 60.1 °F 59.5 °F 29.99 in SW 1.0 mph 3.0 mph 98% 0.00 in CLR
09:30 60.3 °F 59.4 °F 29.99 in WSW 1.0 mph 5.0 mph 97% 0.00 in CLR
TarryTown NY Weather
Compliments of Weather Underground - 1.25 mb